Time;durP1;ratioP1;P1;durP2;ratioP2;P2;SDS_P1;SDS_P2;PMS_P1;PMS_P2;Temp;Humidity;BMP_temperature;BMP_pressure;BME280_temperature;BME280_humidity;BME280_pressure;Samples;Min_cycle;Max_cycle;Signal;HPM_P1;HPM_P2
2023/01/16 00:01:13;;;;;;;6.68;3.08;;;3.50;99.90;;;;;;5068938;28;20044;-39
2023/01/16 00:03:39;;;;;;;8.05;2.97;;;3.20;99.90;;;;;;5050515;28;20386;-39
2023/01/16 00:06:05;;;;;;;7.53;3.00;;;3.40;99.90;;;;;;5068806;28;20119;-39
2023/01/16 00:08:30;;;;;;;10.85;3.40;;;3.30;99.90;;;;;;5068257;28;20044;-39
2023/01/16 00:10:56;;;;;;;8.85;3.00;;;3.40;99.90;;;;;;5069017;28;20041;-39
2023/01/16 00:13:22;;;;;;;8.07;2.88;;;3.30;99.90;;;;;;5068205;28;20037;-39
2023/01/16 00:15:50;;;;;;;8.80;2.45;;;3.20;99.90;;;;;;5049974;28;20127;-39
2023/01/16 00:18:16;;;;;;;7.38;3.00;;;3.10;99.90;;;;;;5067914;28;20473;-39
2023/01/16 00:20:42;;;;;;;8.98;2.80;;;3.30;99.90;;;;;;5068003;28;20403;-39
2023/01/16 00:23:08;;;;;;;5.85;2.65;;;2.80;99.90;;;;;;5068390;28;20044;-39
2023/01/16 00:25:37;;;;;;;4.88;1.98;;;2.80;99.90;;;;;;5067765;28;20113;-39
2023/01/16 00:28:03;;;;;;;8.85;2.22;;;2.70;99.90;;;;;;5067547;28;20040;-40
2023/01/16 00:30:29;;;;;;;10.10;3.08;;;2.30;99.90;;;;;;5067829;28;20090;-39
2023/01/16 00:32:54;;;;;;;7.60;2.50;;;2.30;99.90;;;;;;5067656;28;20044;-39
2023/01/16 00:35:21;;;;;;;9.48;2.47;;;;;;;;;;5067231;28;20040;-39
2023/01/16 00:37:46;;;;;;;5.80;2.58;;;2.20;99.90;;;;;;5067768;28;20098;-39
2023/01/16 00:40:12;;;;;;;11.35;3.10;;;2.30;99.90;;;;;;5067810;28;20044;-40
2023/01/16 00:42:38;;;;;;;6.63;2.42;;;2.20;99.90;;;;;;5067534;28;20043;-40
2023/01/16 00:45:04;;;;;;;5.88;2.22;;;2.50;99.90;;;;;;5067717;28;20042;-39
2023/01/16 00:47:30;;;;;;;7.80;2.67;;;1.90;99.90;;;;;;5067605;28;20037;-39
2023/01/16 00:49:55;;;;;;;11.25;2.80;;;2.00;99.90;;;;;;5067190;28;20051;-39
2023/01/16 00:52:22;;;;;;;8.27;2.53;;;2.00;99.90;;;;;;5067135;28;20466;-39
2023/01/16 00:54:47;;;;;;;8.48;2.58;;;1.90;99.90;;;;;;5067338;28;20039;-39
2023/01/16 00:57:13;;;;;;;9.35;2.53;;;1.70;99.90;;;;;;5067408;28;20040;-39
2023/01/16 00:59:38;;;;;;;6.72;2.42;;;1.80;99.90;;;;;;5067248;28;20044;-39
2023/01/16 01:02:04;;;;;;;10.43;2.47;;;1.70;99.90;;;;;;5067657;28;20040;-39
2023/01/16 01:04:30;;;;;;;8.40;2.55;;;1.50;99.90;;;;;;5067596;28;20052;-38
2023/01/16 01:06:55;;;;;;;15.35;2.92;;;1.60;99.90;;;;;;5067052;28;20040;-39
2023/01/16 01:09:21;;;;;;;7.78;2.83;;;1.60;99.90;;;;;;5066911;28;20049;-39
2023/01/16 01:11:47;;;;;;;7.68;2.70;;;1.70;99.90;;;;;;5067150;28;20040;-39
2023/01/16 01:14:12;;;;;;;12.88;2.70;;;1.70;99.90;;;;;;5067284;28;20596;-39
2023/01/16 01:16:40;;;;;;;10.75;2.45;;;1.60;99.90;;;;;;5066754;28;20406;-39
2023/01/16 01:19:05;;;;;;;9.23;3.10;;;1.60;99.90;;;;;;5066045;28;20064;-39
2023/01/16 01:21:31;;;;;;;9.25;2.85;;;1.60;99.90;;;;;;5066896;28;20063;-39
2023/01/16 01:23:57;;;;;;;8.55;3.00;;;1.60;99.90;;;;;;5067130;28;20106;-39
2023/01/16 01:26:23;;;;;;;9.13;3.10;;;1.50;99.90;;;;;;5067124;28;20045;-39
2023/01/16 01:28:48;;;;;;;8.10;3.13;;;1.50;99.90;;;;;;5048570;28;20057;-39
2023/01/16 01:31:14;;;;;;;9.80;2.47;;;1.50;99.90;;;;;;5067113;28;20068;-39
2023/01/16 01:33:40;;;;;;;6.47;2.40;;;1.50;99.90;;;;;;5067095;28;20048;-39
2023/01/16 01:36:06;;;;;;;9.38;2.47;;;1.50;99.90;;;;;;5066175;28;20055;-39
2023/01/16 01:38:33;;;;;;;13.38;3.30;;;1.20;99.90;;;;;;5067278;28;20045;-39
2023/01/16 01:40:59;;;;;;;12.35;2.58;;;1.50;99.90;;;;;;5066754;28;20040;-39
2023/01/16 01:43:46;;;;;;;8.82;3.25;;;1.40;99.90;;;;;;5066565;28;20052;-39
2023/01/16 01:46:45;;;;;;;6.65;2.35;;;1.40;99.90;;;;;;5066613;28;20086;-39
2023/01/16 01:49:29;;;;;;;8.10;2.20;;;1.30;99.90;;;;;;5067021;28;20059;-39
2023/01/16 01:51:57;;;;;;;7.93;2.17;;;1.30;99.90;;;;;;5066914;28;20126;-39
2023/01/16 01:54:32;;;;;;;10.73;2.30;;;1.40;99.90;;;;;;5067006;28;20048;-39
2023/01/16 01:57:03;;;;;;;11.73;3.03;;;1.40;99.90;;;;;;5066734;28;20048;-39
2023/01/16 01:59:34;;;;;;;11.57;3.00;;;1.60;99.90;;;;;;5067138;28;20048;-39
2023/01/16 02:02:01;;;;;;;9.40;2.65;;;1.70;99.90;;;;;;5067116;28;20044;-39
2023/01/16 02:04:32;;;;;;;7.57;2.75;;;1.90;99.90;;;;;;5067205;28;20037;-39
2023/01/16 02:07:02;;;;;;;10.40;2.67;;;2.00;99.90;;;;;;5066599;28;20044;-39
2023/01/16 02:09:28;;;;;;;10.07;2.75;;;2.10;99.90;;;;;;5067229;28;20090;-39
2023/01/16 02:11:57;;;;;;;9.02;2.72;;;2.10;99.90;;;;;;5066765;28;20048;-39
2023/01/16 02:14:26;;;;;;;9.68;2.97;;;2.30;99.90;;;;;;5066966;28;20653;-39
2023/01/16 02:20:05;;;;;;;4.82;1.90;;;2.50;99.90;;;;;;5067100;28;20056;-39
2023/01/16 02:22:49;;;;;;;14.02;2.53;;;2.60;99.90;;;;;;5066885;28;20537;-39
2023/01/16 02:25:47;;;;;;;8.88;2.42;;;2.70;99.90;;;;;;5066633;28;20383;-39
2023/01/16 02:28:40;;;;;;;7.03;1.98;;;2.80;99.90;;;;;;5066680;28;20045;-40
2023/01/16 02:31:08;;;;;;;;;;;2.80;99.90;;;;;;5069885;28;20032;-39
2023/01/16 02:33:53;;;;;;;9.25;1.95;;;2.90;99.90;;;;;;5069999;28;19927;-39
2023/01/16 02:36:30;;;;;;;7.55;2.30;;;2.90;99.90;;;;;;5070067;28;20048;-39
2023/01/16 02:39:18;;;;;;;7.20;1.63;;;2.90;99.90;;;;;;5070173;28;20411;-39
2023/01/16 02:42:14;;;;;;;5.57;2.53;;;2.90;99.90;;;;;;5070095;28;20044;-39
2023/01/16 02:45:02;;;;;;;9.18;2.15;;;3.00;99.90;;;;;;5070190;28;20741;-39
2023/01/16 02:47:28;;;;;;;11.27;2.53;;;3.00;99.90;;;;;;5070263;28;20386;-39
2023/01/16 02:50:13;;;;;;;7.88;1.90;;;3.00;99.90;;;;;;5070148;28;20040;-39
2023/01/16 02:52:57;;;;;;;9.27;2.72;;;3.10;99.90;;;;;;5052155;28;20053;-39
2023/01/16 02:55:47;;;;;;;10.95;2.00;;;3.10;99.90;;;;;;5069955;28;20089;-39
2023/01/16 02:58:14;;;;;;;9.75;1.98;;;3.00;99.90;;;;;;5068812;28;20509;-39
2023/01/16 03:00:52;;;;;;;17.67;2.58;;;2.90;99.90;;;;;;5070270;28;20093;-39
2023/01/16 03:03:26;;;;;;;8.65;2.33;;;2.90;99.90;;;;;;5069893;28;20064;-39
2023/01/16 03:05:59;;;;;;;11.52;2.33;;;2.80;99.90;;;;;;5069317;28;20503;-39
2023/01/16 03:08:55;;;;;;;12.32;2.50;;;2.80;99.90;;;;;;5069737;28;20044;-39
2023/01/16 03:11:24;;;;;;;14.32;2.47;;;2.80;99.90;;;;;;5068920;28;20052;-39
2023/01/16 03:14:01;;;;;;;9.20;3.25;;;2.80;99.90;;;;;;5069533;28;20485;-39
2023/01/16 03:16:58;;;;;;;9.48;2.90;;;2.80;99.90;;;;;;5069863;28;20033;-39
2023/01/16 03:19:29;;;;;;;8.05;2.45;;;2.70;99.90;;;;;;5069092;28;20071;-39
2023/01/16 03:22:03;;;;;;;9.75;2.67;;;3.10;99.90;;;;;;5069326;28;20640;-39
2023/01/16 03:24:37;;;;;;;7.10;2.33;;;2.50;99.90;;;;;;5069503;28;20083;-39
2023/01/16 03:27:19;;;;;;;11.93;3.33;;;2.40;99.90;;;;;;5069036;28;20075;-39
2023/01/16 03:29:54;;;;;;;12.55;3.05;;;2.40;99.90;;;;;;5051103;28;20794;-39
2023/01/16 03:32:45;;;;;;;11.88;3.70;;;2.30;99.90;;;;;;5069157;28;20249;-39
2023/01/16 03:35:29;;;;;;;8.88;2.90;;;2.20;99.90;;;;;;5068519;28;20070;-39
2023/01/16 03:38:03;;;;;;;10.05;3.40;;;2.10;99.90;;;;;;5068889;28;20044;-39
2023/01/16 03:40:34;;;;;;;9.02;3.00;;;2.00;99.90;;;;;;5069427;28;20095;-39
2023/01/16 03:43:11;;;;;;;9.30;2.72;;;2.20;99.90;;;;;;5068652;28;20086;-39
2023/01/16 03:45:49;;;;;;;12.18;3.97;;;2.20;99.90;;;;;;5068884;28;20106;-39
2023/01/16 03:48:48;;;;;;;10.65;3.20;;;2.40;99.90;;;;;;5068420;28;20427;-39
2023/01/16 03:51:21;;;;;;;5.78;2.80;;;3.70;99.90;;;;;;5068478;28;20105;-39
2023/01/16 03:54:01;;;;;;;12.65;3.25;;;2.50;99.90;;;;;;5068850;28;20056;-39
2023/01/16 03:56:36;;;;;;;9.10;2.92;;;2.70;99.90;;;;;;5068753;28;20044;-39
2023/01/16 03:59:03;;;;;;;13.70;4.60;;;2.60;99.90;;;;;;5068773;28;20267;-39
2023/01/16 04:01:41;;;;;;;10.07;3.83;;;2.70;99.90;;;;;;5068528;28;20045;-39
2023/01/16 04:04:40;;;;;;;10.27;3.97;;;2.70;99.90;;;;;;5068853;28;20052;-39
2023/01/16 04:07:06;;;;;;;12.02;4.82;;;2.80;99.90;;;;;;5068241;28;20080;-39
2023/01/16 04:09:49;;;;;;;12.18;5.18;;;2.80;99.90;;;;;;5068132;28;20080;-39
2023/01/16 04:12:20;;;;;;;16.30;5.10;;;2.90;99.90;;;;;;5068074;28;20079;-39
2023/01/16 04:14:50;;;;;;;11.25;4.70;;;2.90;99.90;;;;;;5068448;28;20040;-39
2023/01/16 04:17:16;;;;;;;9.85;5.10;;;3.00;99.90;;;;;;5067161;28;20071;-39
2023/01/16 04:19:43;;;;;;;13.40;4.75;;;3.00;99.90;;;;;;5067688;28;20083;-39
2023/01/16 04:22:19;;;;;;;11.98;5.20;;;3.50;99.90;;;;;;5067755;28;20044;-39
2023/01/16 04:24:45;;;;;;;9.15;5.28;;;3.10;99.90;;;;;;5067639;28;20548;-39
2023/01/16 04:27:11;;;;;;;12.88;5.32;;;3.10;99.90;;;;;;5068124;28;20056;-39
2023/01/16 04:29:36;;;;;;;10.50;5.95;;;3.10;99.90;;;;;;5067628;28;20105;-39
2023/01/16 04:32:02;;;;;;;11.57;5.40;;;3.10;99.90;;;;;;5068046;28;20389;-39
2023/01/16 04:34:28;;;;;;;11.82;6.18;;;3.20;99.90;;;;;;5067165;28;20115;-39
2023/01/16 04:36:54;;;;;;;15.27;6.25;;;3.00;99.90;;;;;;5067712;28;20040;-39
2023/01/16 04:39:19;;;;;;;11.70;6.68;;;3.20;99.90;;;;;;5067475;28;20133;-39
2023/01/16 04:41:50;;;;;;;12.65;6.45;;;3.20;99.90;;;;;;5067921;28;20079;-39
2023/01/16 04:44:16;;;;;;;15.75;6.88;;;3.10;99.90;;;;;;5067600;28;20166;-40
2023/01/16 04:46:42;;;;;;;16.17;6.53;;;3.10;99.90;;;;;;5067790;28;20044;-39
2023/01/16 04:49:08;;;;;;;15.70;7.32;;;3.10;99.90;;;;;;5067751;28;20041;-39
2023/01/16 04:51:35;;;;;;;15.20;7.43;;;3.10;99.90;;;;;;5067869;28;20059;-39
2023/01/16 04:54:01;;;;;;;14.95;7.40;;;3.20;99.90;;;;;;5066864;28;20524;-39
2023/01/16 04:56:27;;;;;;;13.00;7.40;;;3.10;99.90;;;;;;5032829;28;20049;-39
2023/01/16 04:58:53;;;;;;;14.98;7.72;;;3.20;99.90;;;;;;5067487;28;20055;-39
2023/01/16 05:01:19;;;;;;;16.10;8.02;;;3.20;99.90;;;;;;5067385;28;20087;-39
2023/01/16 05:03:45;;;;;;;14.65;7.95;;;3.20;99.90;;;;;;5066944;28;20478;-39
2023/01/16 05:06:10;;;;;;;16.45;10.45;;;3.30;99.90;;;;;;5067152;28;20048;-39
2023/01/16 05:08:36;;;;;;;17.65;9.63;;;3.30;99.90;;;;;;5066726;28;20055;-40
2023/01/16 05:11:02;;;;;;;18.27;10.20;;;3.30;99.90;;;;;;5066917;28;20106;-39
2023/01/16 05:13:29;;;;;;;19.88;9.93;;;3.30;99.90;;;;;;5067000;28;20072;-39
2023/01/16 05:15:54;;;;;;;20.00;10.38;;;3.30;99.90;;;;;;5067524;28;20040;-39
2023/01/16 05:18:20;;;;;;;25.23;12.98;;;3.20;99.90;;;;;;5066655;28;20118;-39
2023/01/16 05:20:46;;;;;;;23.70;11.30;;;3.30;99.90;;;;;;5066463;28;20046;-39
2023/01/16 05:23:12;;;;;;;20.27;11.80;;;3.30;99.90;;;;;;5067189;28;20040;-39
2023/01/16 05:25:38;;;;;;;23.73;13.57;;;3.30;99.90;;;;;;5067130;28;20490;-39
2023/01/16 05:28:04;;;;;;;31.98;13.02;;;3.20;99.90;;;;;;5066822;28;20516;-39
2023/01/16 05:30:30;;;;;;;31.58;14.90;;;3.10;99.90;;;;;;5066817;28;20052;-39
2023/01/16 05:32:55;;;;;;;25.00;12.88;;;2.90;99.90;;;;;;5067435;28;20093;-39
2023/01/16 05:35:21;;;;;;;24.67;13.77;;;2.80;99.90;;;;;;5066784;28;20094;-39
2023/01/16 05:37:47;;;;;;;36.80;14.43;;;2.70;99.90;;;;;;5066725;28;20092;-39
2023/01/16 05:40:13;;;;;;;31.02;13.95;;;2.50;99.90;;;;;;5066822;28;20139;-39
2023/01/16 05:42:41;;;;;;;31.15;13.95;;;2.50;99.90;;;;;;5066883;28;20447;-39
2023/01/16 05:45:08;;;;;;;27.13;14.50;;;2.50;99.90;;;;;;5066998;28;20044;-39
2023/01/16 05:47:34;;;;;;;31.90;14.43;;;2.60;99.90;;;;;;5067018;28;20048;-39
2023/01/16 05:49:59;;;;;;;34.35;14.77;;;2.60;99.90;;;;;;5067114;28;20085;-39
2023/01/16 05:52:26;;;;;;;27.45;12.15;;;2.60;99.90;;;;;;5067004;28;20127;-39
2023/01/16 05:54:52;;;;;;;29.52;13.88;;;2.60;99.90;;;;;;5066802;28;20036;-39
2023/01/16 05:57:20;;;;;;;22.42;12.60;;;2.70;99.90;;;;;;5067170;28;20082;-39
2023/01/16 05:59:54;;;;;;;31.17;12.98;;;2.50;99.90;;;;;;5066628;28;20056;-39
2023/01/16 06:02:20;;;;;;;31.67;13.98;;;2.50;99.90;;;;;;5066498;28;20523;-39
2023/01/16 06:04:47;;;;;;;28.42;13.05;;;2.50;99.90;;;;;;5067661;28;20040;-39
2023/01/16 06:07:13;;;;;;;24.80;12.55;;;2.50;99.90;;;;;;5070810;28;20700;-39
2023/01/16 06:09:39;;;;;;;29.63;14.57;;;2.60;99.90;;;;;;5070114;28;20037;-39
2023/01/16 06:12:07;;;;;;;27.65;13.45;;;2.60;99.90;;;;;;5070763;28;20032;-39
2023/01/16 06:14:33;;;;;;;22.05;12.55;;;2.80;99.90;;;;;;5052177;28;20578;-39
2023/01/16 06:16:59;;;;;;;31.50;14.63;;;2.70;99.90;;;;;;5070320;28;20078;-39
2023/01/16 06:19:24;;;;;;;27.80;13.88;;;2.70;99.90;;;;;;5070034;28;20056;-39
2023/01/16 06:21:50;;;;;;;25.33;13.07;;;2.70;99.90;;;;;;5070273;28;20087;-39
2023/01/16 06:24:16;;;;;;;25.92;12.10;;;2.70;99.90;;;;;;5070354;28;20466;-39
2023/01/16 06:26:41;;;;;;;19.33;11.45;;;2.70;99.90;;;;;;5070257;28;20121;-39
2023/01/16 06:29:09;;;;;;;25.58;11.35;;;2.70;99.90;;;;;;5070355;28;20573;-39
2023/01/16 06:31:35;;;;;;;23.45;11.45;;;2.70;99.90;;;;;;5051947;28;20047;-39
2023/01/16 06:34:00;;;;;;;20.15;9.93;;;2.50;99.90;;;;;;5069578;28;20352;-39
2023/01/16 06:36:26;;;;;;;21.75;9.85;;;2.50;99.90;;;;;;5069813;28;20089;-39
2023/01/16 06:38:52;;;;;;;22.10;9.77;;;2.40;99.90;;;;;;5069780;28;20603;-39
2023/01/16 06:41:17;;;;;;;21.92;9.88;;;2.40;99.90;;;;;;5070119;28;20083;-39
2023/01/16 06:43:43;;;;;;;20.98;10.13;;;2.30;99.90;;;;;;5069906;28;20048;-39
2023/01/16 06:46:08;;;;;;;22.45;9.73;;;2.30;99.90;;;;;;5069870;28;20048;-39
2023/01/16 06:48:34;;;;;;;19.35;8.32;;;2.20;99.90;;;;;;5069719;28;20037;-39
2023/01/16 06:51:00;;;;;;;14.82;7.43;;;2.20;99.90;;;;;;5069545;28;20044;-39
2023/01/16 06:53:26;;;;;;;23.00;8.85;;;2.40;99.90;;;;;;5069864;28;20116;-39
2023/01/16 06:55:52;;;;;;;24.55;8.80;;;2.60;99.90;;;;;;5069871;28;20098;-39
2023/01/16 06:58:18;;;;;;;21.58;8.77;;;2.20;99.90;;;;;;5070218;28;20049;-39
2023/01/16 07:00:44;;;;;;;24.35;8.93;;;2.10;99.90;;;;;;5069868;28;20072;-39
2023/01/16 07:03:10;;;;;;;19.88;8.75;;;2.10;99.90;;;;;;5070320;28;20050;-39
2023/01/16 07:05:36;;;;;;;20.75;8.85;;;2.10;99.90;;;;;;5069663;28;20123;-38
2023/01/16 07:08:02;;;;;;;19.95;8.50;;;2.10;99.90;;;;;;5069195;28;20447;-39
2023/01/16 07:10:28;;;;;;;18.52;7.78;;;2.00;99.90;;;;;;5069578;28;20043;-39
2023/01/16 07:12:54;;;;;;;17.73;7.47;;;2.00;99.90;;;;;;5068922;28;20040;-38
2023/01/16 07:23:45;;;;;;;19.08;7.03;;;2.00;99.90;;;;;;5069206;28;20070;-39
2023/01/16 07:26:12;;;;;;;13.18;6.20;;;2.10;99.90;;;;;;5069127;28;20055;-39
2023/01/16 07:28:38;;;;;;;14.63;7.40;;;2.10;99.90;;;;;;5068758;28;20075;-39
2023/01/16 07:31:06;;;;;;;15.52;6.60;;;2.10;99.90;;;;;;5068307;28;20127;-40
2023/01/16 07:33:32;;;;;;;14.27;6.30;;;2.60;99.90;;;;;;5068852;28;20079;-40
2023/01/16 07:35:58;;;;;;;15.95;6.25;;;2.10;99.90;;;;;;5068517;28;20384;-40
2023/01/16 07:38:23;;;;;;;14.77;6.13;;;2.20;99.90;;;;;;5036153;28;20053;-43
2023/01/16 07:40:49;;;;;;;14.73;7.25;;;2.30;99.90;;;;;;5045188;28;20040;-41
2023/01/16 07:43:15;;;;;;;17.40;8.30;;;2.20;99.90;;;;;;5046823;28;20052;-40
2023/01/16 07:45:40;;;;;;;14.98;6.80;;;2.20;99.90;;;;;;5046877;28;20058;-41
2023/01/16 07:48:06;;;;;;;19.95;9.35;;;2.70;99.90;;;;;;5045724;28;20063;-41
2023/01/16 07:50:32;;;;;;;18.48;8.70;;;2.20;99.90;;;;;;5046665;28;20679;-40
2023/01/16 07:52:57;;;;;;;18.73;8.13;;;2.60;99.90;;;;;;5046723;28;20119;-41
2023/01/16 07:55:23;;;;;;;17.80;8.55;;;2.30;99.90;;;;;;5047418;28;20045;-41
2023/01/16 07:57:49;;;;;;;15.60;9.27;;;2.40;99.90;;;;;;5046960;28;20043;-40
2023/01/16 08:00:15;;;;;;;20.13;7.95;;;2.30;99.90;;;;;;5046810;28;20138;-40
2023/01/16 08:02:41;;;;;;;17.63;7.68;;;2.50;99.90;;;;;;5029362;28;20071;-41
2023/01/16 08:05:08;;;;;;;20.02;8.18;;;2.40;99.90;;;;;;5046573;28;20080;-40
2023/01/16 08:07:34;;;;;;;21.45;7.65;;;2.50;99.90;;;;;;5046146;28;20505;-40
2023/01/16 08:10:00;;;;;;;23.42;8.73;;;2.30;99.90;;;;;;5046279;28;20250;-41
2023/01/16 08:12:26;;;;;;;21.55;8.15;;;2.50;99.90;;;;;;5046338;28;20095;-41
2023/01/16 08:14:51;;;;;;;19.15;8.07;;;2.50;99.90;;;;;;5028278;28;20083;-38
2023/01/16 08:17:17;;;;;;;19.23;8.30;;;2.40;99.90;;;;;;5046660;28;20036;-39
2023/01/16 08:19:43;;;;;;;20.55;8.00;;;2.60;99.90;;;;;;5047284;28;20131;-39
2023/01/16 08:22:08;;;;;;;12.07;7.10;;;2.40;99.90;;;;;;5046867;28;20040;-38
2023/01/16 08:24:34;;;;;;;17.65;7.68;;;2.50;99.90;;;;;;5047859;28;20051;-39
2023/01/16 08:27:00;;;;;;;15.95;7.60;;;2.50;99.90;;;;;;5047317;28;20048;-38
2023/01/16 08:29:26;;;;;;;18.25;7.68;;;2.60;99.90;;;;;;5047607;28;20056;-39
2023/01/16 08:31:51;;;;;;;14.13;7.50;;;2.50;99.90;;;;;;5047845;28;20116;-38
2023/01/16 08:34:17;;;;;;;15.80;7.80;;;2.60;99.90;;;;;;5048112;28;20135;-39
2023/01/16 08:36:43;;;;;;;14.68;6.35;;;2.80;99.90;;;;;;5047574;28;20107;-39
2023/01/16 08:39:10;;;;;;;14.27;7.40;;;2.70;99.90;;;;;;5047523;28;20451;-38
2023/01/16 08:52:47;;;;;;;9.63;5.18;;;3.00;99.90;;;;;;5047749;28;20071;-38
2023/01/16 08:55:12;;;;;;;13.48;5.28;;;2.90;99.90;;;;;;5047222;28;20037;-39
2023/01/16 08:57:38;;;;;;;10.90;4.38;;;3.00;99.90;;;;;;5047486;28;20514;-39
2023/01/16 09:00:06;;;;;;;9.02;4.32;;;3.00;99.90;;;;;;5047708;28;20048;-38
2023/01/16 09:02:34;;;;;;;9.30;4.85;;;3.20;99.90;;;;;;5046728;28;20144;-39
2023/01/16 09:05:00;;;;;;;11.38;4.60;;;3.10;99.90;;;;;;5046853;28;20049;-38
2023/01/16 09:07:25;;;;;;;10.00;4.15;;;3.10;99.90;;;;;;5046944;28;20392;-39
2023/01/16 09:09:51;;;;;;;7.50;3.90;;;3.10;99.90;;;;;;5046908;28;20185;-39
2023/01/16 09:15:02;;;;;;;9.55;4.50;;;3.20;99.90;;;;;;5046527;28;20125;-38
2023/01/16 09:17:29;;;;;;;7.53;3.25;;;3.30;99.90;;;;;;5046696;28;20126;-39
2023/01/16 09:19:55;;;;;;;9.48;3.38;;;3.10;99.90;;;;;;5046990;28;20080;-39
2023/01/16 09:22:21;;;;;;;9.10;3.17;;;3.20;99.90;;;;;;5046870;28;20053;-39
2023/01/16 09:24:46;;;;;;;5.65;2.42;;;3.20;99.90;;;;;;5045919;28;20106;-39
2023/01/16 09:27:18;;;;;;;7.60;3.28;;;3.20;99.90;;;;;;5047025;28;20041;-40
2023/01/16 09:29:43;;;;;;;8.83;3.53;;;3.30;99.90;;;;;;5046726;28;20051;-39
2023/01/16 09:32:09;;;;;;;6.80;3.78;;;3.30;99.90;;;;;;5029520;28;20049;-40
2023/01/16 09:34:36;;;;;;;5.70;2.65;;;3.30;99.90;;;;;;5043473;28;20096;-40
2023/01/16 09:37:03;;;;;;;8.45;2.92;;;3.30;99.90;;;;;;5043173;28;20047;-40
2023/01/16 09:39:28;;;;;;;6.72;2.72;;;4.30;99.90;;;;;;5025665;28;20053;-40
2023/01/16 09:45:14;;;;;;;6.00;2.33;;;3.40;99.90;;;;;;5047255;28;20060;-40
2023/01/16 09:47:41;;;;;;;6.22;2.47;;;5.40;99.90;;;;;;5047477;28;20045;-40
2023/01/16 09:50:26;;;;;;;4.32;2.25;;;3.30;99.90;;;;;;5047600;28;20148;-40
2023/01/16 09:58:35;;;;;;;10.10;3.67;;;3.40;99.90;;;;;;5047209;28;20127;-39
2023/01/16 10:01:02;;;;;;;5.63;1.90;;;3.40;99.90;;;;;;5047163;28;20056;-40
2023/01/16 10:03:27;;;;;;;7.28;2.80;;;3.40;99.90;;;;;;5047384;28;20045;-40
2023/01/16 10:06:09;;;;;;;10.68;3.00;;;3.30;99.90;;;;;;5047848;28;20056;-40
2023/01/16 10:08:35;;;;;;;6.22;3.08;;;3.40;99.90;;;;;;5047239;28;20049;-40
2023/01/16 10:11:19;;;;;;;5.00;1.70;;;3.30;99.90;;;;;;5047079;28;20074;-40
2023/01/16 10:13:47;;;;;;;4.95;2.17;;;3.40;99.90;;;;;;5047134;28;20875;-40
2023/01/16 10:16:34;;;;;;;7.38;2.38;;;3.30;99.90;;;;;;5046839;28;20052;-40
2023/01/16 10:19:12;;;;;;;4.47;1.65;;;3.40;99.90;;;;;;5046622;28;20053;-39
2023/01/16 10:22:01;;;;;;;11.55;2.50;;;3.30;99.90;;;;;;5047247;28;20052;-40
2023/01/16 10:24:57;;;;;;;4.20;1.70;;;3.50;99.90;;;;;;5046684;28;20041;-39
2023/01/16 10:27:41;;;;;;;5.28;1.98;;;3.50;99.90;;;;;;5047078;28;20787;-40
2023/01/16 10:30:39;;;;;;;7.20;1.75;;;3.30;99.90;;;;;;5046989;28;20045;-40
2023/01/16 10:33:11;;;;;;;9.50;1.92;;;3.50;99.90;;;;;;5032662;28;20052;-40
2023/01/16 10:35:43;;;;;;;8.23;1.75;;;3.40;99.90;;;;;;5045429;28;20554;-40
2023/01/16 10:38:34;;;;;;;4.97;1.48;;;2.00;99.90;;;;;;5046191;28;20037;-40
2023/01/16 10:41:00;;;;;;;4.82;1.33;;;3.50;99.90;;;;;;5046326;28;20064;-40
2023/01/16 10:49:27;;;;;;;5.07;1.13;;;3.30;99.90;;;;;;5045809;28;20103;-40
2023/01/16 10:51:56;;;;;;;4.15;1.00;;;4.30;99.90;;;;;;5045875;28;20037;-41
2023/01/16 10:54:23;;;;;;;10.07;2.05;;;3.30;99.90;;;;;;5027524;28;20044;-43
2023/01/16 10:56:48;;;;;;;4.18;1.20;;;3.20;99.90;;;;;;5046073;28;20045;-40
2023/01/16 10:59:16;;;;;;;6.18;1.42;;;3.20;99.90;;;;;;5045844;28;20068;-40
2023/01/16 11:01:42;;;;;;;5.45;1.63;;;3.10;99.90;;;;;;5046124;28;20047;-40
2023/01/16 11:04:11;;;;;;;5.13;1.65;;;3.20;99.90;;;;;;5045966;28;20391;-40
2023/01/16 11:06:40;;;;;;;4.80;1.75;;;3.20;99.90;;;;;;5027255;28;20044;-40
2023/01/16 11:09:14;;;;;;;5.80;1.88;;;4.10;99.90;;;;;;5045723;28;20099;-40
2023/01/16 11:20:38;;;;;;;6.72;2.10;;;3.20;99.90;;;;;;5044899;28;20049;-41
2023/01/16 11:23:05;;;;;;;;;;;3.20;99.90;;;;;;5045786;28;20052;-40
2023/01/16 11:25:31;;;;;;;4.97;2.33;;;3.20;99.90;;;;;;5044911;28;19920;-40
2023/01/16 11:28:02;;;;;;;6.38;2.20;;;3.20;99.90;;;;;;5045121;28;20128;-40
2023/01/16 11:30:31;;;;;;;8.88;2.28;;;3.20;99.90;;;;;;5043992;28;20131;-40
2023/01/16 11:32:57;;;;;;;6.63;2.10;;;3.10;99.90;;;;;;5026194;28;20040;-40
2023/01/16 11:35:32;;;;;;;5.93;2.13;;;3.60;99.90;;;;;;5041154;28;20052;-40
2023/01/16 11:37:59;;;;;;;7.97;2.42;;;3.30;99.90;;;;;;5061958;28;20115;-40
2023/01/16 11:40:27;;;;;;;6.72;2.60;;;3.30;99.90;;;;;;5062060;28;20147;-40
2023/01/16 11:46:02;;;;;;;5.28;2.13;;;3.40;99.90;;;;;;5062023;28;20056;-40
2023/01/16 11:48:42;;;;;;;5.60;2.47;;;3.30;99.90;;;;;;5061555;28;20678;-39
2023/01/16 11:51:17;;;;;;;4.78;2.30;;;3.40;99.90;;;;;;5062519;28;20040;-40
2023/01/16 11:53:45;;;;;;;5.45;2.40;;;3.30;99.90;;;;;;5043542;28;20139;-41
2023/01/16 11:56:39;;;;;;;5.70;2.28;;;3.30;99.90;;;;;;5062174;28;20458;-39
2023/01/16 11:59:55;;;;;;;4.40;2.75;;;3.30;99.90;;;;;;5043949;28;20135;-39
2023/01/16 12:02:27;;;;;;;6.60;2.90;;;3.40;99.90;;;;;;4981309;28;20174;-39
2023/01/16 12:07:52;;;;;;;6.78;3.10;;;3.40;99.90;;;;;;5059268;28;20048;-39
2023/01/16 12:10:38;;;;;;;5.47;2.50;;;3.50;99.90;;;;;;5060995;28;20055;-39
2023/01/16 12:16:25;;;;;;;10.57;2.83;;;3.50;99.90;;;;;;5059214;28;20091;-39
2023/01/16 12:19:21;;;;;;;6.57;3.15;;;3.50;99.90;;;;;;5060509;28;20088;-39
2023/01/16 12:22:06;;;;;;;7.97;2.72;;;3.60;99.90;;;;;;5061036;28;20048;-39
2023/01/16 12:24:43;;;;;;;6.45;2.85;;;3.60;99.90;;;;;;5043029;28;20045;-38
2023/01/16 12:27:22;;;;;;;10.05;3.67;;;3.60;99.90;;;;;;5044624;28;20113;-39
2023/01/16 12:30:03;;;;;;;10.07;3.75;;;3.70;99.90;;;;;;5043710;28;20120;-40
2023/01/16 12:32:35;;;;;;;7.63;3.35;;;3.70;99.90;;;;;;5033364;28;20064;-37
2023/01/16 12:35:10;;;;;;;7.35;4.10;;;3.60;99.90;;;;;;5062205;28;20052;-38
2023/01/16 12:38:22;;;;;;;8.05;3.00;;;3.70;99.90;;;;;;5062374;28;20033;-38
2023/01/16 12:40:53;;;;;;;8.93;3.65;;;3.80;99.90;;;;;;5036315;28;20109;-44
2023/01/16 12:43:42;;;;;;;6.30;3.97;;;3.80;99.90;;;;;;5061587;28;20906;-41
2023/01/16 12:46:15;;;;;;;6.18;3.30;;;3.90;99.90;;;;;;5061086;28;20286;-39
2023/01/16 12:49:17;;;;;;;4.80;3.28;;;4.40;99.90;;;;;;5061084;28;20040;-40
2023/01/16 12:52:09;;;;;;;6.72;3.45;;;3.80;99.90;;;;;;5062013;28;20076;-40
2023/01/16 12:54:43;;;;;;;7.88;3.90;;;3.80;99.90;;;;;;5061057;28;20044;-40
2023/01/16 12:57:27;;;;;;;7.60;3.78;;;4.10;99.90;;;;;;5060668;28;20664;-41
2023/01/16 13:00:15;;;;;;;9.20;4.60;;;3.80;99.90;;;;;;5060069;28;20135;-39
2023/01/16 13:03:18;;;;;;;6.65;4.10;;;3.90;99.90;;;;;;5042140;28;20394;-40
2023/01/16 13:05:47;;;;;;;11.07;4.70;;;3.80;99.90;;;;;;5025438;28;20055;-40
2023/01/16 13:08:23;;;;;;;7.40;4.30;;;3.80;99.90;;;;;;5042207;28;20130;-39
2023/01/16 13:13:58;;;;;;;6.30;2.92;;;3.90;99.90;;;;;;5059624;28;20143;-40
2023/01/16 13:16:51;;;;;;;6.63;3.53;;;3.80;99.90;;;;;;5043683;28;20694;-53
2023/01/16 13:19:27;;;;;;;9.80;3.25;;;3.80;99.90;;;;;;5063857;28;20482;-50
2023/01/16 13:22:24;;;;;;;6.70;3.10;;;3.80;99.90;;;;;;5066788;28;20040;-46
2023/01/16 13:24:56;;;;;;;6.88;3.17;;;3.80;99.90;;;;;;5065741;28;20036;-46
2023/01/16 13:27:36;;;;;;;9.88;3.85;;;3.80;99.90;;;;;;5065602;28;20051;-47
2023/01/16 13:30:08;;;;;;;9.32;3.60;;;3.70;99.90;;;;;;5065997;28;20695;-45
2023/01/16 13:32:39;;;;;;;10.27;3.55;;;4.20;99.90;;;;;;5045645;28;20691;-48
2023/01/16 13:35:15;;;;;;;7.35;4.05;;;3.80;99.90;;;;;;5063325;28;20045;-47
2023/01/16 13:38:06;;;;;;;7.32;3.45;;;3.80;99.90;;;;;;5064662;28;20122;-46
2023/01/16 13:41:06;;;;;;;7.00;3.20;;;3.90;99.90;;;;;;5064729;28;20048;-50
2023/01/16 13:46:22;;;;;;;6.35;3.28;;;4.40;99.90;;;;;;5065083;28;20059;-47
2023/01/16 13:48:59;;;;;;;8.70;3.70;;;3.90;99.90;;;;;;5064641;28;20393;-49
2023/01/16 13:51:25;;;;;;;6.18;3.83;;;4.00;99.90;;;;;;5065138;28;20044;-54
2023/01/16 13:53:56;;;;;;;8.48;3.85;;;4.10;99.90;;;;;;5064556;28;20049;-54
2023/01/16 13:56:23;;;;;;;4.60;2.72;;;3.90;99.90;;;;;;5063829;28;20047;-53
2023/01/16 13:59:07;;;;;;;6.70;2.80;;;4.40;99.90;;;;;;5065508;28;20074;-49
2023/01/16 14:01:39;;;;;;;8.63;4.40;;;4.20;99.90;;;;;;5061365;28;20911;-43
2023/01/16 14:04:11;;;;;;;16.42;5.38;;;4.10;99.90;;;;;;5062919;28;20515;-45
2023/01/16 14:06:47;;;;;;;5.20;3.47;;;4.10;99.90;;;;;;5062831;28;20461;-47
2023/01/16 14:09:23;;;;;;;5.07;3.45;;;4.10;99.90;;;;;;5064272;28;20044;-46
2023/01/16 14:12:12;;;;;;;7.75;3.92;;;4.20;99.90;;;;;;5064597;28;20036;-46
2023/01/16 14:17:49;;;;;;;9.20;3.65;;;3.90;99.90;;;;;;5064719;28;20060;-51
2023/01/16 14:20:37;;;;;;;10.80;4.45;;;3.90;99.90;;;;;;5064761;28;20056;-48
2023/01/16 14:25:55;;;;;;;9.18;3.60;;;4.00;99.90;;;;;;5065456;28;20090;-48